createdAt,value
2023-04-16T00:01:18.372Z,1.75
2023-04-16T00:03:51.111Z,2.00
2023-04-16T00:06:24.270Z,2.00
2023-04-16T00:08:56.835Z,1.83
2023-04-16T00:11:29.376Z,2.17
2023-04-16T00:14:02.053Z,2.30
2023-04-16T00:16:34.703Z,2.05
2023-04-16T00:19:07.409Z,1.98
2023-04-16T00:21:40.221Z,2.20
2023-04-16T00:24:13.065Z,2.08
2023-04-16T00:26:46.378Z,2.05
2023-04-16T00:29:19.236Z,2.28
2023-04-16T00:31:51.740Z,2.25
2023-04-16T00:34:24.301Z,2.17
2023-04-16T00:36:56.953Z,2.60
2023-04-16T00:39:29.441Z,2.00
2023-04-16T00:42:01.985Z,2.35
2023-04-16T00:44:37.448Z,2.03
2023-04-16T00:47:10.216Z,1.85
2023-04-16T00:49:42.903Z,2.45
2023-04-16T00:52:15.441Z,3.00
2023-04-16T00:54:48.835Z,2.55
2023-04-16T00:57:23.907Z,2.33
2023-04-16T00:59:56.719Z,2.58
2023-04-16T01:02:29.349Z,2.38
2023-04-16T01:05:03.143Z,2.25
2023-04-16T01:07:35.680Z,2.25
2023-04-16T01:10:08.847Z,2.85
2023-04-16T01:12:41.412Z,2.35
2023-04-16T01:15:13.920Z,2.85
2023-04-16T01:17:47.188Z,2.38
2023-04-16T01:20:19.789Z,3.08
2023-04-16T01:22:52.311Z,2.55
2023-04-16T01:25:24.902Z,2.92
2023-04-16T01:27:59.082Z,3.28
2023-04-16T01:30:31.736Z,2.88
2023-04-16T01:33:04.580Z,2.90
2023-04-16T01:35:37.739Z,3.00
2023-04-16T01:38:10.940Z,4.03
2023-04-16T01:40:43.684Z,3.20
2023-04-16T01:43:16.311Z,2.50
2023-04-16T01:45:48.773Z,2.95
2023-04-16T01:48:21.396Z,2.78
2023-04-16T01:50:53.985Z,3.00
2023-04-16T01:53:26.486Z,3.15
2023-04-16T01:55:58.964Z,3.15
2023-04-16T01:58:32.644Z,3.25
2023-04-16T02:01:05.884Z,3.03
2023-04-16T02:03:39.041Z,3.70
2023-04-16T02:06:11.604Z,3.60
2023-04-16T02:08:44.193Z,3.85
2023-04-16T02:11:16.754Z,3.30
2023-04-16T02:13:49.274Z,3.13
2023-04-16T02:16:22.018Z,3.92
2023-04-16T02:18:54.587Z,3.10
2023-04-16T02:21:27.502Z,4.05
2023-04-16T02:24:00.227Z,3.47
2023-04-16T02:26:33.178Z,3.10
2023-04-16T02:29:06.314Z,3.47
2023-04-16T02:31:39.101Z,3.95
2023-04-16T02:34:11.773Z,4.22
2023-04-16T02:36:44.324Z,3.45
2023-04-16T02:39:16.880Z,3.65
2023-04-16T02:41:49.462Z,3.33
2023-04-16T02:44:21.970Z,3.20
2023-04-16T02:46:54.442Z,3.25
2023-04-16T02:49:27.004Z,3.67
2023-04-16T02:51:59.563Z,3.22
2023-04-16T02:54:32.125Z,2.58
2023-04-16T02:57:06.083Z,3.28
2023-04-16T02:59:38.603Z,3.08
2023-04-16T03:02:11.410Z,3.42
2023-04-16T03:04:44.013Z,2.72
2023-04-16T03:07:18.252Z,3.30
2023-04-16T03:09:50.884Z,3.88
2023-04-16T03:12:23.388Z,3.13
2023-04-16T03:14:55.897Z,3.33
2023-04-16T03:17:28.646Z,3.00
2023-04-16T03:20:01.238Z,3.50
2023-04-16T03:22:33.729Z,3.83
2023-04-16T03:25:07.915Z,4.18
2023-04-16T03:27:41.018Z,4.53
2023-04-16T03:30:15.489Z,4.32
2023-04-16T03:32:48.157Z,4.85
2023-04-16T03:35:21.058Z,4.30
2023-04-16T03:37:53.558Z,5.20
2023-04-16T03:40:26.103Z,4.63
2023-04-16T03:43:01.637Z,4.82
2023-04-16T03:45:34.138Z,4.10
2023-04-16T03:48:07.031Z,4.68
2023-04-16T03:50:39.641Z,5.60
2023-04-16T03:53:13.651Z,5.10
2023-04-16T03:55:52.620Z,6.25
2023-04-16T03:58:25.213Z,5.18
2023-04-16T04:00:57.702Z,5.95
2023-04-16T04:03:30.839Z,5.35
2023-04-16T04:06:08.528Z,5.93
2023-04-16T04:08:41.057Z,5.95
2023-04-16T04:11:13.667Z,6.43
2023-04-16T04:13:46.314Z,6.93
2023-04-16T04:16:19.026Z,5.95
2023-04-16T04:18:51.502Z,5.65
2023-04-16T04:21:24.045Z,6.00
2023-04-16T04:23:56.534Z,5.25
2023-04-16T04:26:29.289Z,5.18
2023-04-16T04:29:01.897Z,5.70
2023-04-16T04:31:34.644Z,5.65
2023-04-16T04:34:07.274Z,4.97
2023-04-16T04:36:39.833Z,5.35
2023-04-16T04:39:12.471Z,4.50
2023-04-16T04:41:45.031Z,6.50
2023-04-16T04:44:17.579Z,5.30
2023-04-16T04:46:50.104Z,5.72
2023-04-16T04:49:22.648Z,5.22
2023-04-16T04:51:57.378Z,5.47
2023-04-16T04:54:31.322Z,6.03
2023-04-16T04:57:03.948Z,6.03
2023-04-16T04:59:36.696Z,6.38
2023-04-16T05:02:12.168Z,7.25
2023-04-16T05:04:44.726Z,5.60
2023-04-16T05:07:17.237Z,6.35
2023-04-16T05:09:49.794Z,5.13
2023-04-16T05:12:22.393Z,5.47
2023-04-16T05:14:55.003Z,5.45
2023-04-16T05:17:27.554Z,5.80
2023-04-16T05:20:00.695Z,5.97
2023-04-16T05:22:33.375Z,5.78
2023-04-16T05:25:06.216Z,5.63
2023-04-16T05:27:38.847Z,5.20
2023-04-16T05:30:11.889Z,5.03
2023-04-16T05:32:44.424Z,5.53
2023-04-16T05:35:17.766Z,5.75
2023-04-16T05:37:50.588Z,5.05
2023-04-16T05:40:23.116Z,5.78
2023-04-16T05:42:55.560Z,5.10
2023-04-16T05:45:28.247Z,4.97
2023-04-16T05:48:00.795Z,5.03
2023-04-16T05:50:33.321Z,5.10
2023-04-16T05:53:07.663Z,4.93
2023-04-16T05:55:40.232Z,6.07
2023-04-16T05:58:12.778Z,5.80
2023-04-16T06:00:45.579Z,5.55
2023-04-16T06:03:18.281Z,4.75
2023-04-16T06:05:50.856Z,5.57
2023-04-16T06:08:23.577Z,5.20
2023-04-16T06:10:56.570Z,5.63
2023-04-16T06:13:29.147Z,5.15
2023-04-16T06:16:01.706Z,6.82
2023-04-16T06:18:34.385Z,4.90
2023-04-16T06:21:06.958Z,5.20
2023-04-16T06:23:39.565Z,6.32
2023-04-16T06:26:12.633Z,6.15
2023-04-16T06:28:45.172Z,5.82
2023-04-16T06:31:17.801Z,5.50
2023-04-16T06:33:50.315Z,5.25
2023-04-16T06:36:23.063Z,6.10
2023-04-16T06:38:55.755Z,5.35
2023-04-16T06:41:28.711Z,6.93
2023-04-16T06:44:01.241Z,6.00
2023-04-16T06:46:33.797Z,5.82
2023-04-16T06:49:07.383Z,5.18
2023-04-16T06:51:39.982Z,6.00
2023-04-16T06:54:13.628Z,5.28
2023-04-16T06:56:46.386Z,5.47
2023-04-16T06:59:18.941Z,5.80
2023-04-16T07:01:52.846Z,6.00
2023-04-16T07:04:25.932Z,5.13
2023-04-16T07:06:58.521Z,4.22
2023-04-16T07:09:30.985Z,4.63
2023-04-16T07:12:03.788Z,4.95
2023-04-16T07:14:36.307Z,4.75
2023-04-16T07:17:08.867Z,4.90
2023-04-16T07:19:41.463Z,6.70
2023-04-16T07:22:13.998Z,5.60
2023-04-16T07:24:46.541Z,6.10
2023-04-16T07:27:19.043Z,5.13
2023-04-16T07:29:51.529Z,6.22
2023-04-16T07:32:24.467Z,6.22
2023-04-16T07:34:57.158Z,5.30
2023-04-16T07:37:29.834Z,5.65
2023-04-16T07:40:02.345Z,6.43
2023-04-16T07:42:35.482Z,5.65
2023-04-16T07:45:08.763Z,5.85
2023-04-16T07:47:41.406Z,6.43
2023-04-16T07:50:14.050Z,5.88
2023-04-16T07:52:47.546Z,6.25
2023-04-16T07:55:20.291Z,7.47
2023-04-16T07:57:52.886Z,5.10
2023-04-16T08:00:26.240Z,5.57
2023-04-16T08:02:59.106Z,6.43
2023-04-16T08:05:31.754Z,5.10
2023-04-16T08:08:04.455Z,7.97
2023-04-16T08:10:36.949Z,7.43
2023-04-16T08:13:09.493Z,6.93
2023-04-16T08:15:41.957Z,7.50
2023-04-16T08:18:15.728Z,6.50
2023-04-16T08:20:48.282Z,6.63
2023-04-16T08:23:21.154Z,7.15
2023-04-16T08:25:54.658Z,6.32
2023-04-16T08:28:27.254Z,7.28
2023-04-16T08:30:59.857Z,7.40
2023-04-16T08:33:32.531Z,9.13
2023-04-16T08:36:05.534Z,6.93
2023-04-16T08:38:38.051Z,6.45
2023-04-16T08:41:13.355Z,6.70
2023-04-16T08:43:50.398Z,6.80
2023-04-16T08:46:26.695Z,8.10
2023-04-16T08:49:01.125Z,6.32
2023-04-16T08:51:42.527Z,6.30
2023-04-16T08:54:38.786Z,7.93
2023-04-16T08:57:19.395Z,6.47
2023-04-16T08:59:54.096Z,7.38
2023-04-16T09:02:27.464Z,7.78
2023-04-16T09:05:01.222Z,6.85
2023-04-16T09:07:35.641Z,8.23
2023-04-16T09:10:09.876Z,7.10
2023-04-16T09:12:42.953Z,6.85
2023-04-16T09:15:15.565Z,6.95
2023-04-16T09:17:48.216Z,8.77
2023-04-16T09:20:21.098Z,6.95
2023-04-16T09:22:53.672Z,7.05
2023-04-16T09:25:26.825Z,7.15
2023-04-16T09:27:59.416Z,6.80
2023-04-16T09:30:32.472Z,7.93
2023-04-16T09:33:23.192Z,6.38
2023-04-16T09:35:56.131Z,6.78
2023-04-16T09:38:49.783Z,6.93
2023-04-16T09:41:28.461Z,8.15
2023-04-16T09:44:04.229Z,6.93
2023-04-16T09:46:42.022Z,8.75
2023-04-16T09:49:16.859Z,8.00
2023-04-16T09:51:52.702Z,8.43
2023-04-16T09:54:26.393Z,5.95
2023-04-16T09:57:01.374Z,9.10
2023-04-16T09:59:36.345Z,7.00
2023-04-16T10:02:14.295Z,7.28
2023-04-16T10:04:53.084Z,7.30
2023-04-16T10:07:30.242Z,8.13
2023-04-16T10:10:04.750Z,7.55
2023-04-16T10:12:37.438Z,8.27
2023-04-16T10:15:10.670Z,8.40
2023-04-16T10:17:43.636Z,6.78
2023-04-16T10:20:17.839Z,6.43
2023-04-16T10:22:50.695Z,9.38
2023-04-16T10:25:24.410Z,8.55
2023-04-16T10:27:57.600Z,7.25
2023-04-16T10:30:31.013Z,8.57
2023-04-16T10:33:05.323Z,7.60
2023-04-16T10:35:41.201Z,7.32
2023-04-16T10:38:48.296Z,7.38
2023-04-16T10:41:21.128Z,7.15
2023-04-16T10:44:12.682Z,7.57
2023-04-16T10:46:52.075Z,6.82
2023-04-16T10:49:27.095Z,7.13
2023-04-16T10:52:07.744Z,6.95
2023-04-16T10:54:41.429Z,6.75
2023-04-16T10:57:20.054Z,6.63
2023-04-16T10:59:57.115Z,7.15
2023-04-16T11:02:29.927Z,7.03
2023-04-16T11:05:02.954Z,8.25
2023-04-16T11:07:35.866Z,8.32
2023-04-16T11:10:13.229Z,7.78
2023-04-16T11:12:47.406Z,7.70
2023-04-16T11:15:20.076Z,7.78
2023-04-16T11:17:52.855Z,7.53
2023-04-16T11:20:28.336Z,6.97
2023-04-16T11:23:01.102Z,7.60
2023-04-16T11:25:34.228Z,7.68
2023-04-16T11:28:06.881Z,7.70
2023-04-16T11:30:40.103Z,7.30
2023-04-16T11:33:12.756Z,7.72
2023-04-16T11:35:46.078Z,7.30
2023-04-16T11:38:18.736Z,7.80
2023-04-16T11:40:51.742Z,7.03
2023-04-16T11:43:26.457Z,7.07
2023-04-16T11:46:20.146Z,7.28
2023-04-16T11:48:59.927Z,6.53
2023-04-16T11:51:32.494Z,6.88
2023-04-16T11:54:06.076Z,7.88
2023-04-16T11:56:38.711Z,7.72
2023-04-16T11:59:17.329Z,7.53
2023-04-16T12:01:52.771Z,6.47
2023-04-16T12:04:27.298Z,6.95
2023-04-16T12:07:10.516Z,6.78
2023-04-16T12:09:44.169Z,7.10
2023-04-16T12:12:32.320Z,6.78
2023-04-16T12:15:05.726Z,7.60
2023-04-16T12:17:39.296Z,6.78
2023-04-16T12:20:15.698Z,7.45
2023-04-16T12:22:53.871Z,6.53
2023-04-16T12:25:26.523Z,7.13
2023-04-16T12:27:59.373Z,6.65
2023-04-16T12:30:32.154Z,6.93
2023-04-16T12:33:19.074Z,6.82
2023-04-16T12:35:52.494Z,6.38
2023-04-16T12:38:26.128Z,6.63
2023-04-16T12:40:58.993Z,6.03
2023-04-16T12:43:31.622Z,6.35
2023-04-16T12:46:04.824Z,5.78
2023-04-16T12:48:37.819Z,6.20
2023-04-16T12:51:10.366Z,6.13
2023-04-16T12:53:42.897Z,5.65
2023-04-16T12:56:18.518Z,5.35
2023-04-16T12:58:51.910Z,6.18
2023-04-16T13:01:24.561Z,5.57
2023-04-16T13:03:57.437Z,5.95
2023-04-16T13:06:33.753Z,6.45
2023-04-16T13:09:06.975Z,5.97
2023-04-16T13:11:39.532Z,5.70
2023-04-16T13:14:12.080Z,5.57
2023-04-16T13:16:44.750Z,5.00
2023-04-16T13:19:19.078Z,5.90
2023-04-16T13:21:51.778Z,6.13
2023-04-16T13:24:25.807Z,5.93
2023-04-16T13:26:58.320Z,7.03
2023-04-16T13:29:30.899Z,6.57
2023-04-16T13:32:04.337Z,7.45
2023-04-16T13:34:37.107Z,6.78
2023-04-16T13:37:09.827Z,6.20
2023-04-16T13:39:42.441Z,5.65
2023-04-16T13:42:14.964Z,6.15
2023-04-16T13:44:49.353Z,6.40
2023-04-16T13:47:22.162Z,6.07
2023-04-16T13:49:57.309Z,6.10
2023-04-16T13:52:29.831Z,5.65
2023-04-16T13:55:03.176Z,6.00
2023-04-16T13:57:35.765Z,7.35
2023-04-16T14:00:11.884Z,5.25
2023-04-16T14:02:46.305Z,7.00
2023-04-16T14:05:19.493Z,5.45
2023-04-16T14:07:52.104Z,6.38
2023-04-16T14:10:24.696Z,6.82
2023-04-16T14:12:57.768Z,6.85
2023-04-16T14:15:30.407Z,6.45
2023-04-16T14:18:03.736Z,6.68
2023-04-16T14:20:36.417Z,6.90
2023-04-16T14:23:08.890Z,8.00
2023-04-16T14:25:41.648Z,7.35
2023-04-16T14:28:15.690Z,6.85
2023-04-16T14:30:48.549Z,5.97
2023-04-16T14:33:21.253Z,7.25
2023-04-16T14:35:54.824Z,7.78
2023-04-16T14:38:27.391Z,7.13
2023-04-16T14:41:00.567Z,8.25
2023-04-16T14:43:40.361Z,8.00
2023-04-16T14:46:13.380Z,7.53
2023-04-16T14:48:46.194Z,7.10
2023-04-16T14:51:18.932Z,6.60
2023-04-16T14:53:51.503Z,7.35
2023-04-16T14:56:24.112Z,7.45
2023-04-16T14:58:56.657Z,8.20
2023-04-16T15:01:29.321Z,5.97
2023-04-16T15:04:03.037Z,6.13
2023-04-16T15:06:36.447Z,7.10
2023-04-16T15:09:10.406Z,6.93
2023-04-16T15:11:43.085Z,6.80
2023-04-16T15:14:16.650Z,7.95
2023-04-16T15:16:49.509Z,7.45
2023-04-16T15:19:22.542Z,7.32
2023-04-16T15:21:55.895Z,7.65
2023-04-16T15:24:28.557Z,6.63
2023-04-16T15:27:02.370Z,6.95
2023-04-16T15:29:35.741Z,7.13
2023-04-16T15:32:08.349Z,6.55
2023-04-16T15:34:45.002Z,6.97
2023-04-16T15:37:17.526Z,7.88
2023-04-16T15:39:50.044Z,7.03
2023-04-16T15:42:24.446Z,7.07
2023-04-16T15:44:57.103Z,8.85
2023-04-16T15:47:29.689Z,8.00
2023-04-16T15:50:03.258Z,8.10
2023-04-16T15:52:36.456Z,8.02
2023-04-16T15:55:10.063Z,7.50
2023-04-16T15:57:42.602Z,7.25
2023-04-16T16:00:18.825Z,9.00
2023-04-16T16:02:51.635Z,7.00
2023-04-16T16:05:24.369Z,7.78
2023-04-16T16:07:58.252Z,7.05
2023-04-16T16:10:30.862Z,7.53
2023-04-16T16:13:05.432Z,6.90
2023-04-16T16:15:40.913Z,7.95
2023-04-16T16:18:13.741Z,6.93
2023-04-16T16:20:46.817Z,8.70
2023-04-16T16:23:19.598Z,7.68
2023-04-16T16:25:55.861Z,7.65
2023-04-16T16:28:28.500Z,7.50
2023-04-16T16:31:02.076Z,7.88
2023-04-16T16:33:34.747Z,7.55
2023-04-16T16:36:10.853Z,9.43
2023-04-16T16:38:48.810Z,9.13
2023-04-16T16:41:21.773Z,8.15
2023-04-16T16:43:56.220Z,8.40
2023-04-16T16:46:29.534Z,9.02
2023-04-16T16:49:05.201Z,8.82
2023-04-16T16:51:37.833Z,7.95
2023-04-16T16:54:10.631Z,7.38
2023-04-16T16:56:43.200Z,8.38
2023-04-16T16:59:15.821Z,9.18
2023-04-16T17:01:48.407Z,7.78
2023-04-16T17:04:23.220Z,7.78
2023-04-16T17:06:55.901Z,8.00
2023-04-16T17:09:28.985Z,7.97
2023-04-16T17:12:01.864Z,8.00
2023-04-16T17:14:35.357Z,8.25
2023-04-16T17:17:07.952Z,7.85
2023-04-16T17:19:40.633Z,7.72
2023-04-16T17:22:14.031Z,7.32
2023-04-16T17:24:47.139Z,8.98
2023-04-16T17:27:19.755Z,8.40
2023-04-16T17:29:58.589Z,8.70
2023-04-16T17:32:32.724Z,8.82
2023-04-16T17:35:06.819Z,8.73
2023-04-16T17:37:39.619Z,7.68
2023-04-16T17:40:14.301Z,7.53
2023-04-16T17:42:48.767Z,8.80
2023-04-16T17:45:21.304Z,7.68
2023-04-16T17:47:54.110Z,8.85
2023-04-16T17:50:27.777Z,9.38
2023-04-16T17:53:06.653Z,9.02
2023-04-16T17:55:39.258Z,9.15
2023-04-16T17:58:11.824Z,8.98
2023-04-16T18:00:45.953Z,8.50
2023-04-16T18:03:20.701Z,8.52
2023-04-16T18:05:54.710Z,8.85
2023-04-16T18:08:27.702Z,10.43
2023-04-16T18:11:00.299Z,8.70
2023-04-16T18:13:35.895Z,8.23
2023-04-16T18:16:17.333Z,8.13
2023-04-16T18:18:50.181Z,8.75
2023-04-16T18:21:22.766Z,8.77
2023-04-16T18:23:55.433Z,7.65
2023-04-16T18:26:29.884Z,8.95
2023-04-16T18:29:03.947Z,8.43
2023-04-16T18:31:36.622Z,9.00
2023-04-16T18:34:09.202Z,8.43
2023-04-16T18:36:49.550Z,8.25
2023-04-16T18:39:22.172Z,8.23
2023-04-16T18:41:54.717Z,8.32
2023-04-16T18:44:27.868Z,8.95
2023-04-16T18:47:00.607Z,8.75
2023-04-16T18:49:33.271Z,9.10
2023-04-16T18:52:05.897Z,9.20
2023-04-16T18:54:38.619Z,8.95
2023-04-16T18:57:11.212Z,9.00
2023-04-16T18:59:43.719Z,9.10
2023-04-16T19:02:16.339Z,8.55
2023-04-16T19:04:48.978Z,8.30
2023-04-16T19:07:21.790Z,9.27
2023-04-16T19:09:54.367Z,8.93
2023-04-16T19:12:27.054Z,9.40
2023-04-16T19:14:59.876Z,8.77
2023-04-16T19:17:32.509Z,8.40
2023-04-16T19:20:11.116Z,7.97
2023-04-16T19:22:43.694Z,8.98
2023-04-16T19:25:16.345Z,8.23
2023-04-16T19:27:48.902Z,8.73
2023-04-16T19:30:21.557Z,8.20
2023-04-16T19:32:55.413Z,7.38
2023-04-16T19:35:30.046Z,8.20
2023-04-16T19:38:02.562Z,8.05
2023-04-16T19:40:35.819Z,8.32
2023-04-16T19:43:08.752Z,9.30
2023-04-16T19:45:46.588Z,8.77
2023-04-16T19:48:22.505Z,9.05
2023-04-16T19:53:27.428Z,7.15
2023-04-16T19:55:59.898Z,8.60
2023-04-16T19:58:32.478Z,8.68
2023-04-16T20:01:11.623Z,9.50
2023-04-16T20:03:44.264Z,8.63
2023-04-16T20:06:17.646Z,9.90
2023-04-16T20:08:50.263Z,9.75
2023-04-16T20:11:22.804Z,9.27
2023-04-16T20:13:56.136Z,9.90
2023-04-16T20:16:31.934Z,8.75
2023-04-16T20:19:09.014Z,9.32
2023-04-16T20:21:43.255Z,9.48
2023-04-16T20:24:18.885Z,8.48
2023-04-16T20:26:51.490Z,9.73
2023-04-16T20:29:23.985Z,10.30
2023-04-16T20:31:56.589Z,10.57
2023-04-16T20:34:29.062Z,8.02
2023-04-16T20:37:01.569Z,7.95
2023-04-16T20:39:34.293Z,9.00
2023-04-16T20:42:10.056Z,10.20
2023-04-16T20:44:42.631Z,9.13
2023-04-16T20:47:16.935Z,9.63
2023-04-16T20:49:49.651Z,9.00
2023-04-16T20:52:22.219Z,11.73
2023-04-16T20:54:54.757Z,10.43
2023-04-16T20:57:28.150Z,10.38
2023-04-16T21:00:00.673Z,10.13
2023-04-16T21:02:33.441Z,9.63
2023-04-16T21:05:10.256Z,10.02
2023-04-16T21:07:43.155Z,8.07
2023-04-16T21:10:21.962Z,9.68
2023-04-16T21:12:54.485Z,10.73
2023-04-16T21:15:27.104Z,8.90
2023-04-16T21:17:59.618Z,10.25
2023-04-16T21:20:33.304Z,9.00
2023-04-16T21:23:07.264Z,8.93
2023-04-16T21:25:39.791Z,9.40
2023-04-16T21:28:12.331Z,9.40
2023-04-16T21:30:44.807Z,8.57
2023-04-16T21:33:17.323Z,8.52
2023-04-16T21:35:53.799Z,8.68
2023-04-16T21:38:26.329Z,10.88
2023-04-16T21:41:01.365Z,10.10
2023-04-16T21:43:33.938Z,9.10
2023-04-16T21:46:06.456Z,9.68
2023-04-16T21:48:39.128Z,9.27
2023-04-16T21:51:11.688Z,9.77
2023-04-16T21:53:44.257Z,9.40
2023-04-16T21:56:16.712Z,8.63
2023-04-16T21:58:49.362Z,8.45
2023-04-16T22:01:22.032Z,10.57
2023-04-16T22:03:54.649Z,9.70
2023-04-16T22:06:27.302Z,9.80
2023-04-16T22:08:59.795Z,8.18
2023-04-16T22:11:32.386Z,9.32
2023-04-16T22:14:08.259Z,9.88
2023-04-16T22:16:41.911Z,8.85
2023-04-16T22:19:14.832Z,9.10
2023-04-16T22:21:48.461Z,8.77
2023-04-16T22:24:21.290Z,10.50
2023-04-16T22:26:53.813Z,9.43
2023-04-16T22:29:26.338Z,10.30
2023-04-16T22:32:00.758Z,10.63
2023-04-16T22:34:36.151Z,10.93
2023-04-16T22:37:08.802Z,9.45
2023-04-16T22:39:41.411Z,10.20
2023-04-16T22:42:14.003Z,10.80
2023-04-16T22:44:46.563Z,9.38
2023-04-16T22:47:19.100Z,10.18
2023-04-16T22:49:52.612Z,10.25
2023-04-16T22:52:25.610Z,10.75
2023-04-16T22:54:58.146Z,9.80
2023-04-16T22:57:31.045Z,10.00
2023-04-16T23:00:06.469Z,9.70
2023-04-16T23:02:39.096Z,10.10
2023-04-16T23:05:11.897Z,10.82
2023-04-16T23:07:44.555Z,10.98
2023-04-16T23:10:17.195Z,10.95
2023-04-16T23:12:49.717Z,10.38
2023-04-16T23:15:22.268Z,10.80
2023-04-16T23:17:54.906Z,10.35
2023-04-16T23:20:29.364Z,11.32
2023-04-16T23:23:01.912Z,10.25
2023-04-16T23:25:34.448Z,11.43
2023-04-16T23:28:06.918Z,11.93
2023-04-16T23:30:39.453Z,10.95
2023-04-16T23:33:11.912Z,11.50
2023-04-16T23:35:44.560Z,11.15
2023-04-16T23:38:17.085Z,10.77
2023-04-16T23:40:49.696Z,10.70
2023-04-16T23:43:22.360Z,10.30
2023-04-16T23:45:54.980Z,9.02
2023-04-16T23:48:28.684Z,9.20
2023-04-16T23:51:01.243Z,10.80
2023-04-16T23:53:36.259Z,9.57
2023-04-16T23:56:11.049Z,9.50
2023-04-16T23:58:43.660Z,10.82
